KLM1787 EHAM-EDDV
Flight info
| Callsign | KLM1787 |
|---|---|
| Flight time | 0h 37m |
| Altitude | 23000 |
| Route | ARNEM L620 SUVOX Q234 JUWGI Y850 FUWUG T463 NIE |
| Aircraft | E75L/M-SDE3GILORVW/S |
Departure
| Time | 2026-05-05 09:04 |
|---|---|
| Airport | Amsterdam Airport Schiphol (EHAM) |
Arrival
| Time | 2026-05-05 09:42 |
|---|---|
| Airport | Hannover Airport (EDDV) |
| Time | Latitude | Longitude | Altitude | Speed | Heading |
|---|---|---|---|---|---|
| 2026-05-05 08:47 | 52.30318 | 4.76257 | -12 ft | 0 kts | 57° |
| 2026-05-05 08:57 | 52.30317 | 4.76255 | -2 ft | 4 kts | 57° |
| 2026-05-05 08:57 | 52.30296 | 4.76203 | -2 ft | 7 kts | 54° |
| 2026-05-05 08:57 | 52.30293 | 4.76130 | -2 ft | 7 kts | 119° |
| 2026-05-05 08:57 | 52.30307 | 4.76102 | -2 ft | 0 kts | 137° |
| 2026-05-05 09:01 | 52.30307 | 4.76127 | -2 ft | 9 kts | 95° |
| 2026-05-05 09:01 | 52.30244 | 4.76226 | -2 ft | 15 kts | 152° |
| 2026-05-05 09:01 | 52.30151 | 4.76157 | -2 ft | 19 kts | 238° |
| 2026-05-05 09:02 | 52.30066 | 4.75931 | -4 ft | 26 kts | 238° |
| 2026-05-05 09:02 | 52.29969 | 4.75667 | -3 ft | 28 kts | 231° |
| 2026-05-05 09:02 | 52.29857 | 4.75400 | -1 ft | 28 kts | 235° |
| 2026-05-05 09:02 | 52.29815 | 4.75342 | 1 ft | 17 kts | 215° |
| 2026-05-05 09:03 | 52.29687 | 4.75086 | -1 ft | 32 kts | 237° |
| 2026-05-05 09:03 | 52.29561 | 4.74756 | -2 ft | 35 kts | 238° |
| 2026-05-05 09:03 | 52.29425 | 4.74414 | 1 ft | 35 kts | 223° |
| 2026-05-05 09:03 | 52.29249 | 4.74458 | 1 ft | 30 kts | 110° |
| 2026-05-05 09:04 | 52.29356 | 4.74869 | -3 ft | 74 kts | 56° |
| 2026-05-05 09:04 | 52.29770 | 4.75954 | -4 ft | 147 kts | 59° |
| 2026-05-05 09:04 | 52.30355 | 4.77621 | 333 ft | 181 kts | 58° |
| 2026-05-05 09:04 | 52.31012 | 4.79356 | 1409 ft | 176 kts | 56° |
| 2026-05-05 09:05 | 52.31663 | 4.81116 | 2295 ft | 189 kts | 66° |
| 2026-05-05 09:05 | 52.31828 | 4.83318 | 2919 ft | 215 kts | 97° |
| 2026-05-05 09:05 | 52.31431 | 4.85862 | 3490 ft | 242 kts | 104° |
| 2026-05-05 09:05 | 52.30940 | 4.88582 | 4128 ft | 261 kts | 105° |
| 2026-05-05 09:06 | 52.30411 | 4.91475 | 5085 ft | 268 kts | 105° |
| 2026-05-05 09:06 | 52.29884 | 4.94418 | 6102 ft | 272 kts | 106° |
| 2026-05-05 09:06 | 52.29355 | 4.97424 | 7071 ft | 278 kts | 106° |
| 2026-05-05 09:06 | 52.28819 | 5.00493 | 8029 ft | 283 kts | 106° |
| 2026-05-05 09:07 | 52.28284 | 5.03570 | 8971 ft | 288 kts | 105° |
| 2026-05-05 09:07 | 52.27730 | 5.06752 | 9926 ft | 294 kts | 105° |
| 2026-05-05 09:07 | 52.27158 | 5.10041 | 10533 ft | 311 kts | 105° |
| 2026-05-05 09:07 | 52.26542 | 5.13570 | 10888 ft | 335 kts | 106° |
| 2026-05-05 09:08 | 52.25886 | 5.17317 | 11451 ft | 348 kts | 106° |
| 2026-05-05 09:08 | 52.25215 | 5.21141 | 12318 ft | 352 kts | 106° |
| 2026-05-05 09:08 | 52.24569 | 5.25033 | 13168 ft | 357 kts | 102° |
| 2026-05-05 09:08 | 52.24223 | 5.29086 | 13947 ft | 363 kts | 94° |
| 2026-05-05 09:09 | 52.24031 | 5.33218 | 14694 ft | 367 kts | 94° |
| 2026-05-05 09:09 | 52.23832 | 5.37346 | 15440 ft | 371 kts | 94° |
| 2026-05-05 09:09 | 52.23622 | 5.41574 | 16178 ft | 376 kts | 95° |
| 2026-05-05 09:09 | 52.23405 | 5.45850 | 16903 ft | 380 kts | 95° |
| 2026-05-05 09:10 | 52.23152 | 5.50175 | 17617 ft | 385 kts | 98° |
| 2026-05-05 09:10 | 52.22588 | 5.54469 | 18293 ft | 389 kts | 107° |
| 2026-05-05 09:10 | 52.21664 | 5.58648 | 18923 ft | 393 kts | 113° |
| 2026-05-05 09:10 | 52.20639 | 5.62815 | 19562 ft | 396 kts | 113° |
| 2026-05-05 09:11 | 52.19617 | 5.67006 | 20205 ft | 400 kts | 112° |
| 2026-05-05 09:11 | 52.18600 | 5.71188 | 20821 ft | 403 kts | 113° |
| 2026-05-05 09:11 | 52.17558 | 5.75467 | 21431 ft | 407 kts | 113° |
| 2026-05-05 09:11 | 52.16505 | 5.79779 | 22042 ft | 411 kts | 113° |
| 2026-05-05 09:12 | 52.15456 | 5.84069 | 22622 ft | 416 kts | 113° |
| 2026-05-05 09:12 | 52.14377 | 5.88471 | 22893 ft | 419 kts | 113° |
| 2026-05-05 09:12 | 52.13294 | 5.92878 | 22935 ft | 419 kts | 113° |
| 2026-05-05 09:12 | 52.12211 | 5.97280 | 22939 ft | 419 kts | 113° |
| 2026-05-05 09:13 | 52.11127 | 6.01677 | 22936 ft | 419 kts | 113° |
| 2026-05-05 09:13 | 52.10067 | 6.06041 | 22938 ft | 419 kts | 111° |
| 2026-05-05 09:13 | 52.09277 | 6.10606 | 22937 ft | 421 kts | 103° |
| 2026-05-05 09:13 | 52.08727 | 6.15293 | 22935 ft | 421 kts | 102° |
| 2026-05-05 09:14 | 52.08177 | 6.19968 | 22935 ft | 421 kts | 102° |
| 2026-05-05 09:14 | 52.07620 | 6.24645 | 22933 ft | 421 kts | 102° |
| 2026-05-05 09:14 | 52.07058 | 6.29318 | 22928 ft | 421 kts | 102° |
| 2026-05-05 09:14 | 52.06492 | 6.34000 | 22929 ft | 421 kts | 102° |
| 2026-05-05 09:15 | 52.05932 | 6.38612 | 22929 ft | 421 kts | 102° |
| 2026-05-05 09:15 | 52.05363 | 6.43282 | 22926 ft | 421 kts | 102° |
| 2026-05-05 09:15 | 52.04790 | 6.47972 | 22925 ft | 422 kts | 102° |
| 2026-05-05 09:15 | 52.04217 | 6.52644 | 22925 ft | 422 kts | 102° |
| 2026-05-05 09:16 | 52.03641 | 6.57334 | 22923 ft | 422 kts | 102° |
| 2026-05-05 09:16 | 52.03063 | 6.62013 | 22928 ft | 422 kts | 102° |
| 2026-05-05 09:16 | 52.02492 | 6.66625 | 22921 ft | 422 kts | 102° |
| 2026-05-05 09:16 | 52.01910 | 6.71310 | 22922 ft | 422 kts | 102° |
| 2026-05-05 09:17 | 52.01325 | 6.76001 | 22922 ft | 422 kts | 102° |
| 2026-05-05 09:17 | 52.00740 | 6.80676 | 22923 ft | 422 kts | 102° |
| 2026-05-05 09:17 | 52.00153 | 6.85352 | 22921 ft | 422 kts | 102° |
| 2026-05-05 09:17 | 51.99573 | 6.89955 | 22917 ft | 422 kts | 102° |
| 2026-05-05 09:18 | 51.98982 | 6.94627 | 22919 ft | 423 kts | 103° |
| 2026-05-05 09:18 | 51.98389 | 6.99300 | 22921 ft | 422 kts | 103° |
| 2026-05-05 09:18 | 51.97794 | 7.03978 | 22917 ft | 422 kts | 102° |
| 2026-05-05 09:18 | 51.97500 | 7.08724 | 22917 ft | 424 kts | 88° |
| 2026-05-05 09:19 | 51.97970 | 7.13424 | 22919 ft | 424 kts | 72° |
| 2026-05-05 09:19 | 51.99157 | 7.17814 | 22923 ft | 424 kts | 61° |
| 2026-05-05 09:19 | 52.00548 | 7.22031 | 22925 ft | 424 kts | 61° |
| 2026-05-05 09:19 | 52.01948 | 7.26246 | 22926 ft | 424 kts | 61° |
| 2026-05-05 09:20 | 52.03325 | 7.30419 | 22928 ft | 424 kts | 61° |
| 2026-05-05 09:20 | 52.04711 | 7.34651 | 22931 ft | 424 kts | 61° |
| 2026-05-05 09:20 | 52.06092 | 7.38895 | 22931 ft | 425 kts | 61° |
| 2026-05-05 09:20 | 52.07476 | 7.43162 | 22935 ft | 425 kts | 61° |
| 2026-05-05 09:21 | 52.08851 | 7.47410 | 22895 ft | 425 kts | 61° |
| 2026-05-05 09:21 | 52.10229 | 7.51677 | 22646 ft | 424 kts | 61° |
| 2026-05-05 09:21 | 52.11594 | 7.55912 | 22377 ft | 420 kts | 62° |
| 2026-05-05 09:21 | 52.12931 | 7.60067 | 22109 ft | 417 kts | 62° |
| 2026-05-05 09:22 | 52.14278 | 7.64259 | 21857 ft | 416 kts | 62° |
| 2026-05-05 09:22 | 52.15618 | 7.68437 | 21599 ft | 414 kts | 62° |
| 2026-05-05 09:22 | 52.16953 | 7.72581 | 21328 ft | 411 kts | 60° |
| 2026-05-05 09:22 | 52.18513 | 7.76477 | 21069 ft | 408 kts | 51° |
| 2026-05-05 09:23 | 52.20379 | 7.79963 | 20818 ft | 405 kts | 45° |
| 2026-05-05 09:23 | 52.22333 | 7.83267 | 20567 ft | 404 kts | 45° |
| 2026-05-05 09:23 | 52.24253 | 7.86600 | 20312 ft | 403 kts | 49° |
| 2026-05-05 09:23 | 52.25696 | 7.90431 | 20062 ft | 402 kts | 67° |
| 2026-05-05 09:24 | 52.26396 | 7.94831 | 19827 ft | 401 kts | 82° |
| 2026-05-05 09:24 | 52.26734 | 7.99358 | 19579 ft | 400 kts | 83° |
| 2026-05-05 09:24 | 52.27058 | 8.03863 | 19336 ft | 398 kts | 83° |
| 2026-05-05 09:24 | 52.27377 | 8.08340 | 19095 ft | 396 kts | 83° |
| 2026-05-05 09:25 | 52.27692 | 8.12797 | 18854 ft | 394 kts | 83° |
| 2026-05-05 09:25 | 52.28001 | 8.17195 | 18616 ft | 393 kts | 83° |
| 2026-05-05 09:25 | 52.28310 | 8.21634 | 18381 ft | 390 kts | 83° |
| 2026-05-05 09:25 | 52.28614 | 8.26024 | 18134 ft | 388 kts | 83° |
| 2026-05-05 09:26 | 52.28914 | 8.30371 | 17860 ft | 387 kts | 83° |
| 2026-05-05 09:26 | 52.29215 | 8.34738 | 17597 ft | 386 kts | 83° |
| 2026-05-05 09:26 | 52.29515 | 8.39089 | 17330 ft | 384 kts | 83° |
| 2026-05-05 09:26 | 52.29811 | 8.43377 | 17072 ft | 383 kts | 83° |
| 2026-05-05 09:27 | 52.30104 | 8.47622 | 16813 ft | 382 kts | 83° |
| 2026-05-05 09:27 | 52.30411 | 8.51981 | 16563 ft | 381 kts | 83° |
| 2026-05-05 09:27 | 52.30711 | 8.56265 | 16297 ft | 379 kts | 83° |
| 2026-05-05 09:27 | 52.31005 | 8.60478 | 16048 ft | 378 kts | 83° |
| 2026-05-05 09:28 | 52.31304 | 8.64748 | 15796 ft | 377 kts | 83° |
| 2026-05-05 09:28 | 52.31604 | 8.68999 | 15527 ft | 374 kts | 83° |
| 2026-05-05 09:28 | 52.31906 | 8.73208 | 15279 ft | 372 kts | 83° |
| 2026-05-05 09:28 | 52.32208 | 8.77404 | 15027 ft | 372 kts | 83° |
| 2026-05-05 09:29 | 52.32512 | 8.81597 | 14787 ft | 371 kts | 83° |
| 2026-05-05 09:29 | 52.32818 | 8.85788 | 14547 ft | 370 kts | 83° |
| 2026-05-05 09:29 | 52.33126 | 8.89964 | 14302 ft | 368 kts | 83° |
| 2026-05-05 09:29 | 52.33431 | 8.94067 | 14064 ft | 367 kts | 83° |
| 2026-05-05 09:30 | 52.33742 | 8.98216 | 13828 ft | 366 kts | 84° |
| 2026-05-05 09:30 | 52.34055 | 9.02340 | 13574 ft | 365 kts | 84° |
| 2026-05-05 09:30 | 52.34368 | 9.06453 | 13306 ft | 363 kts | 84° |
| 2026-05-05 09:30 | 52.34684 | 9.10552 | 13043 ft | 362 kts | 84° |
| 2026-05-05 09:31 | 52.34998 | 9.14633 | 12782 ft | 361 kts | 84° |
| 2026-05-05 09:31 | 52.35313 | 9.18699 | 12519 ft | 359 kts | 84° |
| 2026-05-05 09:31 | 52.35628 | 9.22748 | 12263 ft | 358 kts | 84° |
| 2026-05-05 09:31 | 52.35937 | 9.26745 | 12013 ft | 357 kts | 84° |
| 2026-05-05 09:32 | 52.36251 | 9.30769 | 11627 ft | 355 kts | 84° |
| 2026-05-05 09:32 | 52.36562 | 9.34759 | 11150 ft | 352 kts | 84° |
| 2026-05-05 09:32 | 52.36871 | 9.38722 | 10656 ft | 348 kts | 84° |
| 2026-05-05 09:32 | 52.37174 | 9.42598 | 10173 ft | 345 kts | 84° |
| 2026-05-05 09:33 | 52.37345 | 9.45183 | 9858 ft | 343 kts | 87° |
| 2026-05-05 09:33 | 52.37359 | 9.49063 | 9331 ft | 339 kts | 94° |
| 2026-05-05 09:33 | 52.37217 | 9.54195 | 8629 ft | 335 kts | 94° |
| 2026-05-05 09:33 | 52.37110 | 9.57956 | 8123 ft | 333 kts | 94° |
| 2026-05-05 09:34 | 52.36998 | 9.61733 | 7615 ft | 331 kts | 94° |
| 2026-05-05 09:34 | 52.36920 | 9.64272 | 7293 ft | 331 kts | 94° |
| 2026-05-05 09:34 | 52.36758 | 9.69278 | 6648 ft | 334 kts | 94° |
| 2026-05-05 09:34 | 52.36674 | 9.71798 | 6323 ft | 334 kts | 93° |
| 2026-05-05 09:35 | 52.36533 | 9.75618 | 5811 ft | 335 kts | 94° |
| 2026-05-05 09:35 | 52.36298 | 9.83120 | 4767 ft | 323 kts | 94° |
| 2026-05-05 09:35 | 52.36184 | 9.86734 | 4330 ft | 309 kts | 94° |
| 2026-05-05 09:36 | 52.36043 | 9.91194 | 4216 ft | 275 kts | 94° |
| 2026-05-05 09:36 | 52.35952 | 9.94208 | 4419 ft | 273 kts | 90° |
| 2026-05-05 09:36 | 52.35917 | 9.96326 | 4238 ft | 274 kts | 92° |
| 2026-05-05 09:36 | 52.35837 | 9.99380 | 3963 ft | 268 kts | 93° |
| 2026-05-05 09:37 | 52.36065 | 10.02370 | 3396 ft | 266 kts | 69° |
| 2026-05-05 09:37 | 52.37121 | 10.04805 | 3087 ft | 265 kts | 38° |
| 2026-05-05 09:37 | 52.38768 | 10.06117 | 3001 ft | 264 kts | 9° |
| 2026-05-05 09:37 | 52.40601 | 10.06451 | 3000 ft | 265 kts | 4° |
| 2026-05-05 09:38 | 52.42426 | 10.06350 | 3001 ft | 263 kts | 341° |
| 2026-05-05 09:38 | 52.43908 | 10.04705 | 3003 ft | 259 kts | 305° |
| 2026-05-05 09:38 | 52.44573 | 10.02024 | 3006 ft | 257 kts | 278° |
| 2026-05-05 09:38 | 52.44728 | 9.99151 | 3005 ft | 255 kts | 270° |
| 2026-05-05 09:39 | 52.44767 | 9.96235 | 3001 ft | 255 kts | 272° |
| 2026-05-05 09:39 | 52.44841 | 9.93310 | 2898 ft | 257 kts | 271° |
| 2026-05-05 09:39 | 52.44918 | 9.90399 | 2550 ft | 256 kts | 272° |
| 2026-05-05 09:39 | 52.44992 | 9.87486 | 2199 ft | 253 kts | 272° |
| 2026-05-05 09:40 | 52.45062 | 9.84709 | 1862 ft | 235 kts | 272° |
| 2026-05-05 09:40 | 52.45128 | 9.82141 | 1549 ft | 216 kts | 273° |
| 2026-05-05 09:40 | 52.45189 | 9.79768 | 1263 ft | 201 kts | 274° |
| 2026-05-05 09:40 | 52.45246 | 9.77535 | 997 ft | 192 kts | 273° |
| 2026-05-05 09:41 | 52.45301 | 9.75397 | 776 ft | 181 kts | 274° |
| 2026-05-05 09:41 | 52.45351 | 9.73450 | 521 ft | 161 kts | 273° |
| 2026-05-05 09:41 | 52.45395 | 9.71732 | 301 ft | 144 kts | 274° |
| 2026-05-05 09:41 | 52.45431 | 9.70176 | 182 ft | 125 kts | 272° |
| 2026-05-05 09:42 | 52.45465 | 9.69031 | 187 ft | 77 kts | 271° |
| 2026-05-05 09:42 | 52.45485 | 9.68382 | 180 ft | 39 kts | 276° |
| 2026-05-05 09:42 | 52.45528 | 9.68260 | 180 ft | 10 kts | 332° |
| 2026-05-05 09:42 | 52.45590 | 9.68251 | 183 ft | 8 kts | 7° |
| 2026-05-05 09:43 | 52.45634 | 9.68302 | 182 ft | 8 kts | 57° |
| 2026-05-05 09:43 | 52.45634 | 9.68358 | 182 ft | 5 kts | 96° |
| 2026-05-05 09:43 | 52.45639 | 9.68506 | 182 ft | 26 kts | 84° |
| 2026-05-05 09:43 | 52.45632 | 9.68798 | 181 ft | 26 kts | 94° |
| 2026-05-05 09:44 | 52.45621 | 9.69099 | 178 ft | 26 kts | 93° |
| 2026-05-05 09:44 | 52.45610 | 9.69374 | 182 ft | 23 kts | 93° |
| 2026-05-05 09:44 | 52.45616 | 9.69617 | 183 ft | 18 kts | 95° |
| 2026-05-05 09:44 | 52.45627 | 9.69805 | 179 ft | 18 kts | 44° |
| 2026-05-05 09:45 | 52.45653 | 9.69824 | 179 ft | 0 kts | 5° |
| 2026-05-05 09:45 | 52.45668 | 9.69823 | 181 ft | 7 kts | 360° |
| 2026-05-05 09:45 | 52.45706 | 9.69823 | 183 ft | 5 kts | 2° |
| 2026-05-05 09:45 | 52.45736 | 9.69838 | 194 ft | 4 kts | 29° |
| 2026-05-05 09:46 | 52.45748 | 9.69866 | 187 ft | 2 kts | 55° |
| 2026-05-05 09:46 | 52.45755 | 9.69886 | 191 ft | 2 kts | 66° |
| 2026-05-05 09:46 | 52.45764 | 9.69913 | 201 ft | 2 kts | 60° |
| 2026-05-05 09:46 | 52.45766 | 9.69916 | 200 ft | 0 kts | 52° |